This is the latest recevied weather packets stored in our database for station/object SP9KB-13. If no packets are shown the sender has not sent any weather packets the latest 10 day(s).
| Time | Temp. | Humidity | Pressure | Rain* | Wind** | Luminosity | Snow |
|---|---|---|---|---|---|---|---|
| 1777965051 | 17.78° C | 44% | 995.4 hPa | 0 mm | - | - | - |
| 1777964751 | 17.22° C | 44% | 995.5 hPa | 0 mm | - | - | - |
| 1777964450 | 17.22° C | 44% | 995.4 hPa | 0 mm | - | - | - |
| 1777964149 | 17.78° C | 44% | 995.5 hPa | 0 mm | - | - | - |
| 1777963849 | 17.22° C | 44% | 995.3 hPa | 0 mm | - | - | - |
| 1777963548 | 16.67° C | 46% | 995.5 hPa | 0 mm | - | - | - |
| 1777963248 | 16.67° C | 44% | 995.7 hPa | 0 mm | - | - | - |
| 1777962947 | 17.22° C | 44% | 995.5 hPa | 0 mm | - | - | - |
| 1777962646 | 17.78° C | 43% | 995.5 hPa | 0 mm | - | - | - |
| 1777962346 | 17.22° C | 45% | 995.5 hPa | 0 mm | - | - | - |
| 1777962045 | 17.22° C | 44% | 995.6 hPa | 0 mm | - | - | - |
| 1777961745 | 17.22° C | 45% | 995.6 hPa | 0 mm | - | - | - |
| 1777961444 | 17.22° C | 45% | 995.6 hPa | 0 mm | - | - | - |
| 1777961144 | 17.22° C | 45% | 995.6 hPa | 0 mm | - | - | - |
| 1777960843 | 17.22° C | 44% | 995.6 hPa | 0 mm | - | - | - |
| 1777960542 | 17.22° C | 44% | 995.5 hPa | 0 mm | - | - | - |
| 1777960242 | 17.22° C | 43% | 995.6 hPa | 0 mm | - | - | - |
| 1777959941 | 17.22° C | 47% | 995.9 hPa | 0 mm | - | - | - |
| 1777959641 | 16.67° C | 45% | 995.7 hPa | 0 mm | - | - | - |
| 1777959340 | 16.67° C | 44% | 995.8 hPa | 0 mm | - | - | - |
| 1777959039 | 16.11° C | 46% | 995.8 hPa | 0 mm | - | - | - |
| 1777958739 | 16.11° C | 47% | 995.7 hPa | 0 mm | - | - | - |
| 1777958438 | 15.56° C | 48% | 995.9 hPa | 0 mm | - | - | - |
| 1777958138 | 15° C | 49% | 996 hPa | 0 mm | - | - | - |
| 1777957837 | 13.33° C | 59% | 995.9 hPa | 0 mm | - | - | - |
* Rain latest hour (hover to see other rain measurements)
** Current wind speed in m/s (hover to see current wind gust speed)